createdAt,value
2022-10-20T00:01:30.701Z,62.32
2022-10-20T00:03:57.046Z,62.49
2022-10-20T00:06:23.357Z,62.87
2022-10-20T00:08:49.777Z,63.55
2022-10-20T00:11:16.055Z,63.93
2022-10-20T00:13:42.394Z,63.90
2022-10-20T00:16:08.717Z,64.33
2022-10-20T00:18:35.068Z,64.41
2022-10-20T00:21:01.401Z,64.32
2022-10-20T00:23:27.744Z,64.34
2022-10-20T00:25:54.080Z,63.99
2022-10-20T00:28:20.405Z,64.20
2022-10-20T00:30:46.765Z,63.86
2022-10-20T00:33:13.106Z,63.60
2022-10-20T00:35:39.420Z,63.32
2022-10-20T00:38:05.844Z,63.21
2022-10-20T00:40:32.114Z,63.37
2022-10-20T00:42:58.436Z,63.51
2022-10-20T00:45:24.790Z,63.20
2022-10-20T00:47:51.134Z,62.71
2022-10-20T00:50:17.450Z,62.68
2022-10-20T00:52:43.775Z,62.49
2022-10-20T00:55:10.115Z,62.55
2022-10-20T00:57:36.660Z,62.37
2022-10-20T01:00:02.781Z,62.28
2022-10-20T01:02:29.098Z,62.14
2022-10-20T01:04:55.416Z,61.91
2022-10-20T01:07:21.776Z,61.82
2022-10-20T01:09:48.115Z,61.71
2022-10-20T01:12:14.458Z,61.68
2022-10-20T01:14:40.813Z,61.76
2022-10-20T01:17:07.147Z,61.52
2022-10-20T01:19:33.492Z,61.35
2022-10-20T01:21:59.861Z,61.47
2022-10-20T01:24:26.199Z,61.39
2022-10-20T01:26:52.540Z,61.53
2022-10-20T01:29:18.873Z,61.61
2022-10-20T01:31:45.196Z,61.57
2022-10-20T01:34:11.516Z,61.52
2022-10-20T01:36:37.872Z,61.46
2022-10-20T01:39:04.206Z,61.63
2022-10-20T01:41:30.528Z,61.64
2022-10-20T01:43:56.890Z,61.82
2022-10-20T01:46:23.210Z,61.71
2022-10-20T01:48:49.550Z,61.91
2022-10-20T01:51:15.878Z,61.97
2022-10-20T01:53:42.218Z,62.45
2022-10-20T01:56:08.575Z,62.60
2022-10-20T01:58:34.910Z,62.93
2022-10-20T02:01:01.260Z,63.16
2022-10-20T02:03:27.604Z,63.33
2022-10-20T02:05:53.929Z,63.36
2022-10-20T02:08:20.267Z,63.86
2022-10-20T02:10:46.587Z,63.88
2022-10-20T02:13:12.901Z,63.56
2022-10-20T02:15:39.225Z,63.96
2022-10-20T02:18:05.547Z,63.95
2022-10-20T02:20:31.872Z,64.03
2022-10-20T02:22:58.191Z,64.20
2022-10-20T02:25:24.519Z,64.53
2022-10-20T02:27:50.935Z,64.70
2022-10-20T02:30:17.221Z,65.17
2022-10-20T02:32:43.536Z,65.36
2022-10-20T02:35:09.919Z,65.70
2022-10-20T02:37:36.452Z,66.03
2022-10-20T02:40:02.574Z,66.11
2022-10-20T02:42:28.891Z,65.78
2022-10-20T02:44:55.256Z,65.80
2022-10-20T02:47:21.581Z,66.13
2022-10-20T02:49:47.906Z,66.03
2022-10-20T02:52:14.288Z,66.27
2022-10-20T02:54:40.598Z,66.48
2022-10-20T02:57:06.939Z,66.58
2022-10-20T02:59:33.284Z,66.50
2022-10-20T03:01:59.673Z,66.49
2022-10-20T03:06:52.261Z,66.55
2022-10-20T03:09:18.583Z,66.76
2022-10-20T03:11:44.897Z,66.86
2022-10-20T03:14:11.261Z,66.80
2022-10-20T03:16:37.592Z,66.73
2022-10-20T03:19:07.150Z,66.82
2022-10-20T03:21:30.298Z,66.82
2022-10-20T03:23:56.617Z,67.08
2022-10-20T03:26:22.936Z,67.22
2022-10-20T03:28:49.287Z,67.14
2022-10-20T03:31:15.651Z,67.08
2022-10-20T03:33:41.995Z,67.22
2022-10-20T03:36:08.307Z,67.26
2022-10-20T03:38:34.655Z,67.20
2022-10-20T03:43:27.334Z,67.26
2022-10-20T03:45:53.670Z,67.41
2022-10-20T03:48:20.032Z,67.45
2022-10-20T03:50:46.342Z,67.23
2022-10-20T03:53:12.669Z,67.53
2022-10-20T03:55:39.025Z,67.73
2022-10-20T03:58:05.369Z,67.63
2022-10-20T04:00:31.708Z,67.64
2022-10-20T04:02:58.057Z,67.66
2022-10-20T04:05:24.392Z,67.77
2022-10-20T04:07:50.733Z,67.79
2022-10-20T04:10:17.064Z,67.93
2022-10-20T04:12:43.417Z,68.00
2022-10-20T04:15:09.749Z,68.05
2022-10-20T04:17:36.143Z,68.01
2022-10-20T04:20:02.417Z,68.24
2022-10-20T04:22:28.757Z,68.14
2022-10-20T04:24:55.111Z,68.21
2022-10-20T04:27:21.666Z,68.50
2022-10-20T04:29:47.979Z,68.37
2022-10-20T04:32:14.313Z,68.43
2022-10-20T04:34:40.663Z,68.50
2022-10-20T04:37:06.980Z,68.52
2022-10-20T04:39:33.334Z,68.51
2022-10-20T04:41:59.671Z,68.77
2022-10-20T04:44:25.992Z,68.81
2022-10-20T04:46:52.336Z,68.76
2022-10-20T04:49:18.654Z,69.02
2022-10-20T04:51:44.995Z,69.08
2022-10-20T04:54:11.335Z,69.15
2022-10-20T04:56:37.652Z,69.12
2022-10-20T04:59:04.010Z,68.89
2022-10-20T05:01:30.358Z,68.65
2022-10-20T05:03:56.673Z,68.66
2022-10-20T05:06:22.990Z,68.60
2022-10-20T05:08:49.397Z,68.11
2022-10-20T05:11:15.654Z,67.54
2022-10-20T05:13:41.975Z,66.94
2022-10-20T05:16:08.294Z,66.45
2022-10-20T05:18:34.662Z,65.59
2022-10-20T05:21:09.667Z,65.33
2022-10-20T05:23:27.339Z,64.97
2022-10-20T05:25:53.655Z,64.18
2022-10-20T05:28:20.012Z,63.74
2022-10-20T05:30:46.489Z,63.38
2022-10-20T05:33:12.840Z,63.31
2022-10-20T05:35:39.158Z,62.98
2022-10-20T05:38:05.488Z,62.62
2022-10-20T05:40:31.827Z,62.02
2022-10-20T05:42:58.186Z,61.67
2022-10-20T05:45:24.528Z,62.36
2022-10-20T05:47:50.883Z,62.82
2022-10-20T05:50:17.409Z,62.36
2022-10-20T05:52:43.765Z,60.96
2022-10-20T05:55:10.086Z,59.97
2022-10-20T05:57:36.440Z,59.54
2022-10-20T06:00:02.771Z,58.93
2022-10-20T06:02:29.091Z,58.06
2022-10-20T06:04:55.420Z,57.38
2022-10-20T06:07:21.771Z,56.88
2022-10-20T06:09:48.110Z,57.06
2022-10-20T06:12:14.433Z,56.09
2022-10-20T06:14:40.768Z,55.84
2022-10-20T06:17:07.096Z,54.93
2022-10-20T06:19:33.419Z,54.58
2022-10-20T06:22:03.865Z,54.20
2022-10-20T06:24:26.220Z,54.03
2022-10-20T06:26:52.569Z,53.83
2022-10-20T06:29:18.896Z,52.93
2022-10-20T06:31:45.217Z,52.72
2022-10-20T06:34:11.560Z,52.82
2022-10-20T06:36:37.924Z,53.76
2022-10-20T06:39:04.260Z,53.29
2022-10-20T06:41:30.582Z,53.38
2022-10-20T06:43:56.949Z,53.85
2022-10-20T06:46:23.271Z,54.00
2022-10-20T06:48:49.612Z,54.44
2022-10-20T06:51:15.959Z,53.92
2022-10-20T06:53:45.718Z,52.89
2022-10-20T06:56:08.652Z,52.64
2022-10-20T06:58:34.987Z,53.22
2022-10-20T07:01:02.596Z,52.80
2022-10-20T07:03:27.683Z,53.25
2022-10-20T07:05:54.003Z,53.23
2022-10-20T07:08:20.321Z,52.41
2022-10-20T07:10:46.666Z,52.26
2022-10-20T07:13:13.005Z,52.10
2022-10-20T07:15:39.328Z,52.12
2022-10-20T07:18:05.687Z,52.06
2022-10-20T07:20:32.005Z,52.60
2022-10-20T07:22:58.357Z,54.34
2022-10-20T07:25:24.749Z,55.14
2022-10-20T07:27:51.082Z,55.51
2022-10-20T07:30:17.416Z,55.41
2022-10-20T07:32:43.778Z,55.42
2022-10-20T07:35:10.124Z,54.63
2022-10-20T07:37:36.817Z,53.14
2022-10-20T07:40:02.766Z,52.70
2022-10-20T07:42:29.082Z,51.48
2022-10-20T07:44:55.422Z,51.23
2022-10-20T07:47:21.806Z,51.06
2022-10-20T07:49:48.128Z,50.72
2022-10-20T07:52:14.500Z,49.54
2022-10-20T07:54:40.823Z,47.77
2022-10-20T07:57:07.191Z,47.04
2022-10-20T07:59:33.539Z,48.13
2022-10-20T08:02:00.368Z,47.95
2022-10-20T08:04:26.211Z,47.61
2022-10-20T08:06:52.551Z,47.88
2022-10-20T08:09:18.897Z,49.24
2022-10-20T08:11:45.216Z,48.64
2022-10-20T08:14:11.563Z,46.95
2022-10-20T08:16:43.964Z,45.69
2022-10-20T08:21:53.104Z,45.45
2022-10-20T08:24:19.438Z,45.19
2022-10-20T08:26:45.776Z,44.06
2022-10-20T08:29:12.100Z,44.07
2022-10-20T08:31:38.476Z,43.83
2022-10-20T08:34:04.800Z,43.66
2022-10-20T08:36:31.139Z,42.78
2022-10-20T08:39:00.680Z,42.95
2022-10-20T08:41:23.807Z,43.14
2022-10-20T08:43:50.172Z,43.13
2022-10-20T08:46:16.514Z,41.55
2022-10-20T08:48:42.826Z,41.60
2022-10-20T08:51:09.163Z,41.95
2022-10-20T08:53:35.551Z,40.78
2022-10-20T08:56:01.891Z,40.26
2022-10-20T08:58:28.232Z,39.68
2022-10-20T09:00:54.608Z,40.52
2022-10-20T09:03:20.949Z,39.37
2022-10-20T09:05:47.270Z,39.73
2022-10-20T09:08:13.599Z,38.54
2022-10-20T09:10:39.921Z,39.28
2022-10-20T09:13:06.268Z,38.72
2022-10-20T09:15:32.585Z,37.94
2022-10-20T09:17:58.911Z,37.57
2022-10-20T09:20:25.227Z,37.49
2022-10-20T09:22:51.577Z,37.59
2022-10-20T09:25:17.920Z,37.26
2022-10-20T09:27:44.283Z,36.09
2022-10-20T09:30:10.599Z,36.49
2022-10-20T09:32:52.396Z,36.06
2022-10-20T09:35:03.303Z,35.57
2022-10-20T09:37:29.644Z,35.55
2022-10-20T09:39:56.112Z,35.74
2022-10-20T09:42:22.319Z,35.27
2022-10-20T09:44:48.640Z,34.79
2022-10-20T09:47:14.984Z,34.43
2022-10-20T09:49:41.353Z,34.66
2022-10-20T09:52:07.678Z,34.79
2022-10-20T09:54:34.021Z,34.09
2022-10-20T09:57:00.345Z,34.71
2022-10-20T09:59:26.679Z,34.14
2022-10-20T10:01:53.007Z,33.68
2022-10-20T10:04:19.367Z,34.26
2022-10-20T10:06:45.686Z,33.97
2022-10-20T10:09:12.150Z,33.49
2022-10-20T10:11:38.337Z,33.56
2022-10-20T10:14:04.675Z,33.21
2022-10-20T10:16:31.021Z,33.33
2022-10-20T10:18:57.341Z,32.90
2022-10-20T10:21:23.686Z,33.39
2022-10-20T10:23:49.998Z,32.53
2022-10-20T10:26:16.373Z,32.54
2022-10-20T10:28:42.710Z,32.48
2022-10-20T10:31:09.029Z,32.87
2022-10-20T10:33:35.355Z,33.13
2022-10-20T10:36:01.708Z,32.75
2022-10-20T10:38:28.029Z,32.39
2022-10-20T10:40:54.380Z,32.92
2022-10-20T10:43:20.718Z,32.41
2022-10-20T10:45:47.067Z,32.53
2022-10-20T10:48:13.406Z,32.06
2022-10-20T10:50:39.732Z,32.20
2022-10-20T10:55:48.810Z,31.87
2022-10-20T10:58:07.792Z,32.22
2022-10-20T11:00:34.129Z,32.06
2022-10-20T11:03:00.448Z,32.62
2022-10-20T11:05:26.766Z,32.96
2022-10-20T11:07:53.111Z,33.12
2022-10-20T11:10:19.484Z,32.60
2022-10-20T11:12:45.828Z,32.76
2022-10-20T11:15:12.143Z,32.57
2022-10-20T11:17:38.694Z,32.22
2022-10-20T11:20:04.832Z,31.71
2022-10-20T11:22:31.155Z,31.88
2022-10-20T11:24:57.529Z,31.56
2022-10-20T11:27:23.881Z,32.61
2022-10-20T11:29:50.188Z,32.96
2022-10-20T11:32:16.575Z,32.58
2022-10-20T11:34:42.884Z,32.35
2022-10-20T11:37:09.207Z,32.26
2022-10-20T11:39:35.561Z,31.97
2022-10-20T11:42:01.908Z,30.99
2022-10-20T11:44:28.228Z,31.08
2022-10-20T11:46:54.610Z,30.62
2022-10-20T11:49:20.945Z,30.94
2022-10-20T11:51:47.265Z,31.59
2022-10-20T11:54:13.643Z,31.63
2022-10-20T11:56:39.987Z,31.71
2022-10-20T11:59:06.304Z,31.71
2022-10-20T12:01:32.706Z,31.32
2022-10-20T12:03:58.977Z,31.89
2022-10-20T12:06:25.300Z,31.18
2022-10-20T12:08:51.667Z,31.26
2022-10-20T12:11:17.990Z,31.26
2022-10-20T12:13:44.308Z,31.61
2022-10-20T12:16:10.651Z,31.26
2022-10-20T12:18:36.969Z,30.78
2022-10-20T12:21:03.315Z,30.71
2022-10-20T12:23:29.654Z,31.09
2022-10-20T12:25:56.018Z,31.00
2022-10-20T12:28:22.393Z,30.58
2022-10-20T12:30:48.740Z,30.67
2022-10-20T12:33:15.052Z,30.64
2022-10-20T12:35:41.378Z,30.12
2022-10-20T12:38:07.720Z,29.67
2022-10-20T12:40:34.077Z,30.25
2022-10-20T12:43:00.395Z,30.55
2022-10-20T12:45:26.741Z,30.55
2022-10-20T12:47:53.064Z,30.24
2022-10-20T12:50:19.398Z,30.26
2022-10-20T12:52:45.718Z,30.20
2022-10-20T12:55:12.062Z,30.03
2022-10-20T12:57:38.685Z,29.94
2022-10-20T13:00:04.791Z,30.01
2022-10-20T13:02:31.129Z,29.84
2022-10-20T13:04:57.475Z,30.07
2022-10-20T13:07:23.831Z,30.17
2022-10-20T13:09:50.187Z,30.65
2022-10-20T13:12:16.507Z,30.62
2022-10-20T13:14:42.909Z,31.32
2022-10-20T13:17:09.305Z,31.42
2022-10-20T13:19:35.618Z,31.97
2022-10-20T13:22:01.956Z,32.52
2022-10-20T13:24:28.319Z,32.75
2022-10-20T13:26:54.657Z,33.13
2022-10-20T13:29:20.973Z,33.27
2022-10-20T13:31:47.354Z,33.02
2022-10-20T13:34:13.702Z,33.48
2022-10-20T13:36:40.043Z,33.43
2022-10-20T13:39:06.385Z,33.64
2022-10-20T13:41:32.706Z,34.05
2022-10-20T13:44:00.825Z,33.75
2022-10-20T13:46:25.405Z,33.85
2022-10-20T13:48:51.726Z,34.14
2022-10-20T13:51:20.498Z,34.15
2022-10-20T13:53:44.396Z,34.43
2022-10-20T13:56:10.737Z,34.39
2022-10-20T13:58:37.098Z,34.28
2022-10-20T14:01:03.497Z,34.14
2022-10-20T14:03:29.755Z,34.34
2022-10-20T14:05:56.094Z,34.17
2022-10-20T14:08:23.547Z,34.27
2022-10-20T14:10:48.791Z,34.42
2022-10-20T14:13:15.114Z,34.55
2022-10-20T14:15:41.452Z,34.74
2022-10-20T14:18:07.776Z,34.65
2022-10-20T14:20:34.117Z,34.38
2022-10-20T14:23:00.439Z,34.56
2022-10-20T14:25:26.779Z,34.53
2022-10-20T14:27:53.121Z,34.57
2022-10-20T14:30:19.489Z,34.51
2022-10-20T14:32:45.813Z,34.88
2022-10-20T14:35:12.136Z,35.20
2022-10-20T14:37:38.856Z,35.45
2022-10-20T14:40:04.888Z,35.76
2022-10-20T14:42:31.191Z,36.08
2022-10-20T14:44:57.516Z,35.90
2022-10-20T14:47:23.858Z,35.98
2022-10-20T14:49:52.299Z,36.11
2022-10-20T14:52:20.373Z,36.31
2022-10-20T14:54:42.919Z,36.66
2022-10-20T14:57:09.261Z,36.88
2022-10-20T14:59:35.606Z,37.10
2022-10-20T15:02:01.942Z,37.28
2022-10-20T15:04:30.063Z,37.28
2022-10-20T15:06:54.699Z,37.31
2022-10-20T15:09:21.059Z,37.54
2022-10-20T15:11:47.349Z,37.70
2022-10-20T15:14:13.671Z,37.95
2022-10-20T15:16:40.016Z,38.01
2022-10-20T15:19:06.339Z,38.10
2022-10-20T15:21:32.683Z,38.25
2022-10-20T15:23:59.041Z,38.35
2022-10-20T15:26:25.379Z,38.69
2022-10-20T15:28:51.702Z,38.73
2022-10-20T15:31:18.052Z,38.78
2022-10-20T15:33:44.399Z,38.92
2022-10-20T15:36:10.711Z,38.80
2022-10-20T15:38:37.038Z,38.96
2022-10-20T15:41:03.369Z,39.04
2022-10-20T15:43:29.705Z,39.24
2022-10-20T15:45:56.061Z,39.14
2022-10-20T15:48:22.382Z,39.17
2022-10-20T15:50:48.744Z,39.49
2022-10-20T15:53:15.114Z,39.39
2022-10-20T15:55:41.449Z,39.41
2022-10-20T15:58:07.770Z,39.54
2022-10-20T16:00:34.151Z,39.69
2022-10-20T16:03:00.464Z,39.88
2022-10-20T16:05:26.783Z,39.68
2022-10-20T16:07:53.115Z,39.99
2022-10-20T16:10:19.449Z,39.90
2022-10-20T16:12:45.829Z,39.90
2022-10-20T16:15:12.173Z,39.99
2022-10-20T16:17:38.555Z,39.96
2022-10-20T16:20:04.831Z,40.15
2022-10-20T16:22:31.172Z,40.33
2022-10-20T16:24:57.537Z,40.66
2022-10-20T16:27:23.866Z,40.90
2022-10-20T16:29:50.186Z,41.05
2022-10-20T16:32:17.702Z,41.02
2022-10-20T16:34:44.021Z,41.05
2022-10-20T16:37:10.369Z,41.26
2022-10-20T16:39:36.715Z,41.33
2022-10-20T16:42:03.072Z,41.62
2022-10-20T16:44:29.415Z,41.82
2022-10-20T16:46:55.740Z,42.13
2022-10-20T16:49:22.119Z,42.39
2022-10-20T16:51:48.463Z,42.72
2022-10-20T16:54:14.791Z,42.86
2022-10-20T16:56:41.154Z,42.98
2022-10-20T16:59:07.439Z,43.17
2022-10-20T17:01:33.819Z,43.40
2022-10-20T17:04:00.169Z,43.58
2022-10-20T17:06:26.489Z,43.77
2022-10-20T17:08:52.889Z,43.90
2022-10-20T17:11:19.208Z,44.25
2022-10-20T17:13:45.532Z,44.36
2022-10-20T17:16:11.858Z,44.54
2022-10-20T17:18:38.212Z,44.79
2022-10-20T17:21:04.535Z,44.96
2022-10-20T17:23:30.902Z,45.12
2022-10-20T17:25:57.313Z,45.26
2022-10-20T17:28:23.629Z,45.40
2022-10-20T17:30:49.950Z,45.68
2022-10-20T17:33:16.285Z,46.01
2022-10-20T17:35:42.616Z,46.10
2022-10-20T17:38:08.939Z,46.17
2022-10-20T17:40:35.299Z,46.48
2022-10-20T17:43:01.705Z,46.80
2022-10-20T17:45:28.043Z,47.08
2022-10-20T17:47:54.382Z,47.29
2022-10-20T17:50:20.728Z,47.48
2022-10-20T17:52:47.091Z,47.78
2022-10-20T17:55:13.435Z,47.98
2022-10-20T17:57:39.795Z,48.14
2022-10-20T18:00:11.084Z,48.41
2022-10-20T18:02:32.498Z,48.80
2022-10-20T18:04:58.824Z,48.87
2022-10-20T18:07:25.199Z,49.11
2022-10-20T18:09:51.555Z,49.32
2022-10-20T18:12:17.897Z,49.58
2022-10-20T18:14:44.243Z,49.75
2022-10-20T18:17:10.606Z,50.33
2022-10-20T18:19:37.367Z,50.42
2022-10-20T18:22:03.687Z,50.72
2022-10-20T18:24:30.025Z,50.59
2022-10-20T18:26:56.356Z,50.83
2022-10-20T18:29:22.705Z,50.83
2022-10-20T18:31:49.025Z,51.00
2022-10-20T18:34:15.372Z,51.13
2022-10-20T18:36:45.009Z,51.31
2022-10-20T18:39:08.054Z,51.45
2022-10-20T18:41:34.417Z,51.57
2022-10-20T18:44:00.762Z,51.72
2022-10-20T18:46:27.084Z,51.68
2022-10-20T18:48:53.451Z,51.94
2022-10-20T18:51:19.798Z,52.03
2022-10-20T18:53:46.192Z,52.01
2022-10-20T18:56:12.488Z,52.13
2022-10-20T18:58:38.841Z,52.40
2022-10-20T19:01:05.204Z,52.51
2022-10-20T19:03:31.537Z,52.62
2022-10-20T19:05:57.854Z,52.66
2022-10-20T19:08:24.185Z,53.00
2022-10-20T19:10:50.509Z,53.21
2022-10-20T19:13:16.885Z,53.25
2022-10-20T19:15:43.223Z,53.37
2022-10-20T19:18:09.548Z,53.33
2022-10-20T19:20:35.889Z,53.41
2022-10-20T19:23:02.209Z,53.67
2022-10-20T19:25:28.531Z,53.65
2022-10-20T19:27:54.892Z,53.89
2022-10-20T19:30:21.218Z,54.00
2022-10-20T19:32:47.845Z,53.97
2022-10-20T19:35:13.900Z,54.00
2022-10-20T19:37:40.224Z,54.06
2022-10-20T19:40:06.555Z,54.18
2022-10-20T19:42:32.964Z,54.34
2022-10-20T19:44:59.280Z,54.52
2022-10-20T19:47:25.607Z,54.68
2022-10-20T19:49:51.952Z,54.62
2022-10-20T19:52:18.280Z,55.04
2022-10-20T19:54:44.666Z,55.04
2022-10-20T19:57:10.981Z,54.95
2022-10-20T19:59:37.322Z,54.83
2022-10-20T20:02:03.705Z,54.80
2022-10-20T20:04:30.044Z,54.93
2022-10-20T20:07:01.704Z,55.11
2022-10-20T20:09:22.726Z,55.49
2022-10-20T20:11:49.147Z,55.76
2022-10-20T20:14:15.453Z,56.05
2022-10-20T20:16:41.946Z,56.21
2022-10-20T20:19:08.274Z,56.30
2022-10-20T20:21:34.623Z,56.58
2022-10-20T20:24:01.440Z,56.85
2022-10-20T20:26:27.282Z,57.07
2022-10-20T20:28:53.625Z,57.64
2022-10-20T20:31:20.000Z,58.12
2022-10-20T20:33:46.347Z,58.31
2022-10-20T20:36:12.644Z,58.58
2022-10-20T20:38:39.021Z,58.70
2022-10-20T20:41:05.394Z,58.54
2022-10-20T20:43:31.755Z,58.61
2022-10-20T20:45:58.026Z,59.00
2022-10-20T20:48:24.344Z,59.24
2022-10-20T20:50:50.704Z,59.10
2022-10-20T20:53:17.054Z,58.96
2022-10-20T20:55:43.418Z,59.05
2022-10-20T20:58:09.745Z,59.18
2022-10-20T21:00:36.070Z,59.45
2022-10-20T21:03:02.399Z,59.49
2022-10-20T21:05:28.728Z,59.57
2022-10-20T21:07:55.087Z,59.49
2022-10-20T21:10:21.409Z,59.44
2022-10-20T21:12:47.751Z,59.54
2022-10-20T21:15:14.099Z,60.09
2022-10-20T21:17:40.415Z,60.49
2022-10-20T21:20:06.762Z,60.86
2022-10-20T21:22:33.088Z,60.91
2022-10-20T21:24:59.461Z,61.23
2022-10-20T21:27:25.785Z,61.29
2022-10-20T21:29:52.107Z,61.69
2022-10-20T21:32:18.455Z,61.76
2022-10-20T21:34:44.825Z,61.53
2022-10-20T21:37:11.159Z,62.22
2022-10-20T21:39:37.509Z,62.78
2022-10-20T21:42:03.805Z,62.78
2022-10-20T21:44:30.125Z,62.51
2022-10-20T21:46:56.453Z,63.26
2022-10-20T21:49:22.797Z,63.51
2022-10-20T21:51:49.141Z,63.30
2022-10-20T21:54:15.532Z,63.38
2022-10-20T21:56:41.815Z,63.29
2022-10-20T21:59:08.164Z,63.57
2022-10-20T22:01:34.611Z,64.72
2022-10-20T22:04:00.918Z,64.98
2022-10-20T22:06:27.257Z,64.94
2022-10-20T22:08:53.651Z,64.62
2022-10-20T22:11:19.936Z,64.23
2022-10-20T22:13:46.277Z,65.25
2022-10-20T22:16:12.602Z,65.40
2022-10-20T22:18:38.951Z,65.55
2022-10-20T22:21:07.608Z,65.92
2022-10-20T22:23:31.611Z,65.72
2022-10-20T22:25:57.936Z,65.59
2022-10-20T22:28:24.259Z,65.69
2022-10-20T22:30:50.668Z,66.03
2022-10-20T22:33:16.964Z,66.21
2022-10-20T22:35:43.305Z,66.59
2022-10-20T22:38:09.627Z,66.73
2022-10-20T22:40:35.949Z,66.85
2022-10-20T22:43:02.357Z,66.80
2022-10-20T22:45:28.677Z,67.26
2022-10-20T22:47:55.015Z,67.53
2022-10-20T22:50:21.373Z,67.54
2022-10-20T22:52:47.698Z,67.08
2022-10-20T22:55:14.014Z,67.18
2022-10-20T22:57:40.331Z,66.83
2022-10-20T23:00:06.737Z,67.02
2022-10-20T23:02:33.003Z,66.87
2022-10-20T23:04:59.352Z,67.06
2022-10-20T23:07:25.661Z,66.89
2022-10-20T23:09:51.975Z,66.76
2022-10-20T23:12:18.314Z,67.00
2022-10-20T23:14:44.624Z,67.13
2022-10-20T23:17:10.944Z,67.13
2022-10-20T23:19:37.293Z,67.34
2022-10-20T23:22:03.656Z,67.33
2022-10-20T23:24:29.990Z,67.28
2022-10-20T23:26:56.371Z,67.23
2022-10-20T23:29:22.700Z,66.75
2022-10-20T23:31:49.048Z,66.48
2022-10-20T23:34:15.357Z,66.40
2022-10-20T23:36:41.690Z,66.48
2022-10-20T23:39:08.008Z,66.85
2022-10-20T23:41:34.340Z,66.95
2022-10-20T23:44:00.733Z,66.76
2022-10-20T23:46:27.055Z,66.57
2022-10-20T23:48:53.370Z,66.32
2022-10-20T23:51:19.726Z,66.20
2022-10-20T23:53:46.042Z,66.12
2022-10-20T23:56:12.381Z,66.38
2022-10-20T23:58:38.723Z,66.30
